Time;durP1;ratioP1;P1;durP2;ratioP2;P2;SDS_P1;SDS_P2;PMS_P1;PMS_P2;Temp;Humidity;BMP_temperature;BMP_pressure;BME280_temperature;BME280_humidity;BME280_pressure;Samples;Min_cycle;Max_cycle;Signal;HPM_P1;HPM_P2
2021/09/09 00:00:19;;;;;;;45.67;29.42;;;;;;;13.84;90.75;101256.34;5012688;28;20113;-74
2021/09/09 00:02:44;;;;;;;35.35;26.27;;;;;;;13.81;90.73;101260.19;5012050;28;20069;-74
2021/09/09 00:05:10;;;;;;;36.42;24.55;;;;;;;13.78;91.25;101259.63;5012424;28;20129;-74
2021/09/09 00:07:36;;;;;;;40.83;27.23;;;;;;;13.74;90.91;101257.25;5012016;28;20129;-74
2021/09/09 00:10:02;;;;;;;41.17;29.05;;;;;;;13.72;91.38;101261.94;5012618;28;20042;-74
2021/09/09 00:12:27;;;;;;;40.65;28.10;;;;;;;13.72;92.80;101261.94;5012229;28;20393;-74
2021/09/09 00:14:53;;;;;;;43.03;28.75;;;;;;;13.69;92.53;101261.38;5011717;28;20034;-74
2021/09/09 00:17:18;;;;;;;48.33;29.05;;;;;;;13.66;92.56;101259.84;5012211;28;20034;-74
2021/09/09 00:19:44;;;;;;;44.33;29.92;;;;;;;13.62;92.77;101249.59;5011943;28;20412;-74
2021/09/09 00:22:09;;;;;;;51.35;33.05;;;;;;;13.59;92.48;101253.41;5012276;28;20060;-74
2021/09/09 00:24:35;;;;;;;45.33;30.17;;;;;;;13.56;92.28;101248.38;5011609;28;20041;-74
2021/09/09 00:27:00;;;;;;;47.55;28.90;;;;;;;13.53;92.60;101246.81;5011055;28;20030;-73
2021/09/09 00:29:26;;;;;;;44.17;29.55;;;;;;;13.54;93.13;101244.97;5012392;28;20030;-74
2021/09/09 00:31:51;;;;;;;41.28;27.77;;;;;;;13.51;93.01;101243.47;5011575;28;20033;-74
2021/09/09 00:34:16;;;;;;;31.45;23.40;;;;;;;13.47;91.94;101239.41;5012115;28;20121;-74
2021/09/09 00:36:42;;;;;;;46.95;30.00;;;;;;;13.48;92.51;101242.91;5011761;28;20030;-74
2021/09/09 00:39:07;;;;;;;39.38;27.27;;;;;;;13.45;92.36;101245.88;5012526;28;20034;-74
2021/09/09 00:41:33;;;;;;;41.20;27.98;;;;;;;13.45;93.21;101243.19;5012226;28;20080;-74
2021/09/09 00:43:59;;;;;;;37.55;26.65;;;;;;;13.39;92.96;101242.81;5014821;28;20084;-74
2021/09/09 00:46:25;;;;;;;39.58;27.98;;;;;;;13.36;92.50;101229.75;5016041;28;20034;-74
2021/09/09 00:48:51;;;;;;;46.55;31.58;;;;;;;13.35;93.20;101233.41;5015148;28;20026;-74
2021/09/09 00:51:16;;;;;;;41.80;27.90;;;;;;;13.34;93.44;101233.56;5015762;28;20037;-74
2021/09/09 00:53:42;;;;;;;45.60;28.88;;;;;;;13.31;92.83;101233.81;5015293;28;20039;-74
2021/09/09 00:56:12;;;;;;;41.15;28.58;;;;;;;13.29;93.42;101227.78;5015655;28;20034;-74
2021/09/09 00:58:39;;;;;;;40.92;26.50;;;;;;;13.25;92.81;101221.06;5015657;28;20037;-74
2021/09/09 01:01:05;;;;;;;37.47;26.67;;;;;;;13.23;92.84;101213.19;5015478;28;20033;-74
2021/09/09 01:03:30;;;;;;;46.42;30.70;;;;;;;13.21;92.99;101205.31;5015482;28;20037;-74
2021/09/09 01:05:56;;;;;;;36.10;25.90;;;;;;;13.18;92.80;101202.94;5014604;28;20084;-74
2021/09/09 01:08:21;;;;;;;41.80;28.63;;;;;;;13.18;93.17;101208.28;5015590;28;20422;-74
2021/09/09 01:10:46;;;;;;;43.05;28.95;;;;;;;13.17;93.55;101203.91;5013732;28;20370;-74
2021/09/09 01:13:12;;;;;;;38.70;27.02;;;;;;;13.15;92.84;101205.91;5015068;28;20034;-74
2021/09/09 01:15:43;;;;;;;35.67;24.08;;;;;;;13.13;92.63;101204.38;5015457;28;20029;-74
2021/09/09 01:18:10;;;;;;;43.47;28.42;;;;;;;13.09;92.70;101195.78;4997842;28;20477;-74
2021/09/09 01:20:36;;;;;;;37.70;24.83;;;;;;;13.08;92.96;101195.94;5015136;28;20034;-74
2021/09/09 01:23:01;;;;;;;35.40;25.98;;;;;;;13.06;92.73;101190.72;5014708;28;20084;-74
2021/09/09 01:25:27;;;;;;;34.35;24.27;;;;;;;13.03;91.93;101191.88;5014892;28;20501;-74
2021/09/09 01:27:52;;;;;;;35.80;24.83;;;;;;;13.03;92.23;101186.53;5014505;28;20029;-74
2021/09/09 01:30:18;;;;;;;58.83;34.78;;;;;;;13.07;94.09;101194.28;5015107;28;20070;-74
2021/09/09 01:32:43;;;;;;;45.58;29.33;;;;;;;13.01;93.99;101188.50;5014198;28;20033;-75
2021/09/09 01:35:09;;;;;;;58.75;34.00;;;;;;;12.98;93.83;101188.81;5015091;28;20037;-74
2021/09/09 01:37:34;;;;;;;38.97;26.17;;;;;;;12.95;93.05;101182.94;5014925;28;20042;-74
2021/09/09 01:39:59;;;;;;;48.97;32.28;;;;;;;12.95;94.25;101186.41;5014329;28;20088;-74
2021/09/09 01:42:25;;;;;;;48.78;31.90;;;;;;;12.94;94.29;101189.25;5014785;28;20516;-74
2021/09/09 01:44:50;;;;;;;45.38;28.80;;;;;;;12.90;93.85;101188.72;5014228;28;20038;-74
2021/09/09 01:47:16;;;;;;;40.00;26.83;;;;;;;12.86;93.22;101188.13;5014720;28;20064;-74
2021/09/09 01:49:41;;;;;;;37.53;25.65;;;;;;;12.85;93.02;101182.94;5013590;28;20448;-74
2021/09/09 01:52:07;;;;;;;47.40;29.85;;;;;;;12.83;93.12;101184.94;5013762;28;20038;-74
2021/09/09 01:54:32;;;;;;;41.42;27.33;;;;;;;12.79;93.32;101181.69;5014577;28;20033;-74
2021/09/09 01:56:57;;;;;;;32.83;23.90;;;;;;;12.78;93.08;101190.72;5014077;28;20037;-74
2021/09/09 01:59:23;;;;;;;36.53;25.52;;;;;;;12.76;93.11;101183.81;5014545;28;20033;-74
2021/09/09 02:01:48;;;;;;;38.72;26.75;;;;;;;12.76;93.35;101186.50;5013807;28;20428;-74
2021/09/09 02:04:14;;;;;;;36.00;25.33;;;;;;;12.71;92.83;101173.56;5014569;28;20505;-74
2021/09/09 02:06:39;;;;;;;44.83;29.13;;;;;;;12.72;93.78;101179.75;5014599;28;20050;-74
2021/09/09 02:09:04;;;;;;;45.70;29.20;;;;;;;12.68;93.44;101185.38;5013488;28;20960;-74
2021/09/09 02:11:31;;;;;;;39.25;26.55;;;;;;;12.66;92.95;101178.53;5014297;28;20040;-74
2021/09/09 02:13:56;;;;;;;46.80;29.95;;;;;;;12.64;92.70;101180.47;5013409;28;20132;-74
2021/09/09 02:16:22;;;;;;;56.35;35.47;;;;;;;12.68;94.44;101182.72;5014229;28;20073;-74
2021/09/09 02:18:47;;;;;;;51.20;31.58;;;;;;;12.65;94.65;101177.66;5013301;28;20030;-74
2021/09/09 02:21:13;;;;;;;46.58;29.70;;;;;;;12.62;94.17;101177.13;5013997;28;20042;-74
2021/09/09 02:23:39;;;;;;;46.47;28.70;;;;;;;12.60;94.48;101182.59;5013753;28;20042;-74
2021/09/09 02:26:05;;;;;;;40.80;26.88;;;;;;;12.58;93.98;101191.72;5013495;28;20474;-74
2021/09/09 02:28:30;;;;;;;44.78;30.42;;;;;;;12.57;93.71;101184.69;5014063;28;20363;-74
2021/09/09 02:30:56;;;;;;;41.10;27.67;;;;;;;12.55;93.47;101184.00;5012200;28;20477;-74
2021/09/09 02:33:21;;;;;;;46.90;30.35;;;;;;;12.53;93.81;101187.66;4996589;28;20030;-74
2021/09/09 02:35:46;;;;;;;41.30;26.88;;;;;;;12.50;93.71;101187.94;5013878;28;20022;-74
2021/09/09 02:38:12;;;;;;;46.17;29.42;;;;;;;12.49;93.73;101182.75;4995410;28;20076;-74
2021/09/09 02:40:37;;;;;;;46.08;29.30;;;;;;;12.47;93.69;101182.91;5013785;28;20470;-74
2021/09/09 02:43:03;;;;;;;46.33;30.15;;;;;;;12.45;93.29;101181.34;5013197;28;20030;-74
2021/09/09 02:45:28;;;;;;;49.42;32.55;;;;;;;12.44;93.92;101172.50;5013673;28;20029;-74
2021/09/09 02:47:53;;;;;;;52.72;32.53;;;;;;;12.41;94.01;101166.63;5012743;28;20129;-74
2021/09/09 02:50:19;;;;;;;48.90;30.52;;;;;;;12.42;94.91;101169.16;5013575;28;20076;-74
2021/09/09 02:52:44;;;;;;;49.45;31.10;;;;;;;12.41;94.52;101167.47;5013228;28;20120;-74
2021/09/09 02:55:11;;;;;;;52.13;29.20;;;;;;;12.38;94.12;101167.75;5012610;28;20378;-74
2021/09/09 02:57:38;;;;;;;46.17;30.98;;;;;;;12.38;93.96;101161.59;5013724;28;20034;-74
2021/09/09 03:00:05;;;;;;;66.68;36.13;;;;;;;12.39;94.35;101164.09;5012752;28;20116;-74
2021/09/09 03:02:30;;;;;;;63.17;38.72;;;;;;;12.41;95.12;101156.78;5013281;28;20080;-74
2021/09/09 03:04:55;;;;;;;52.63;33.78;;;;;;;12.39;95.16;101160.56;5012388;28;20034;-74
2021/09/09 03:07:21;;;;;;;58.10;35.67;;;;;;;12.37;95.00;101162.56;5013411;28;20068;-74
2021/09/09 03:09:46;;;;;;;61.63;36.95;;;;;;;12.34;94.78;101153.84;5013436;28;20033;-74
2021/09/09 03:12:13;;;;;;;64.57;37.10;;;;;;;12.33;94.59;101156.66;5012503;28;20139;-74
2021/09/09 03:14:38;;;;;;;52.35;31.20;;;;;;;12.32;94.38;101146.97;5012974;28;20469;-74
2021/09/09 03:17:04;;;;;;;65.07;36.97;;;;;;;12.31;94.55;101139.94;5012794;28;20041;-74
2021/09/09 03:19:30;;;;;;;58.50;34.30;;;;;;;12.31;94.45;101143.44;5013266;28;20092;-74
2021/09/09 03:21:55;;;;;;;74.07;42.40;;;;;;;12.31;94.45;101146.13;5012102;28;20038;-75
2021/09/09 03:24:21;;;;;;;68.03;37.95;;;;;;;12.30;94.29;101140.94;5013094;28;20034;-74
2021/09/09 03:26:46;;;;;;;95.43;48.60;;;;;;;12.29;94.39;101141.94;5013189;28;20030;-74
2021/09/09 03:29:11;;;;;;;100.25;49.40;;;;;;;12.28;94.72;101141.06;5012493;28;20370;-74
2021/09/09 03:31:37;;;;;;;110.68;52.63;;;;;;;12.28;94.70;101137.56;5012952;28;20041;-74
2021/09/09 03:34:02;;;;;;;101.80;51.38;;;;;;;12.28;95.56;101143.75;5012492;28;20054;-74
2021/09/09 03:36:28;;;;;;;136.25;62.67;;;;;;;12.29;95.57;101153.44;5012665;28;20030;-74
2021/09/09 03:38:53;;;;;;;122.90;56.90;;;;;;;12.29;96.08;101153.44;5012609;28;20045;-74
2021/09/09 03:41:19;;;;;;;96.20;48.50;;;;;;;12.24;95.75;101155.69;5012165;28;20124;-74
2021/09/09 03:43:45;;;;;;;90.97;47.40;;;;;;;12.21;95.24;101152.47;5012815;28;20034;-74
2021/09/09 03:46:10;;;;;;;88.93;47.33;;;;;;;12.20;95.39;101153.47;5012273;28;20484;-75
2021/09/09 03:48:36;;;;;;;96.75;49.70;;;;;;;12.19;95.43;101147.25;5013235;28;20444;-74
2021/09/09 03:51:01;;;;;;;89.32;46.65;;;;;;;12.15;95.26;101141.38;5012167;28;20030;-75
2021/09/09 03:53:26;;;;;;;118.88;55.63;;;;;;;12.15;95.22;101143.19;5012527;28;20038;-74
2021/09/09 03:55:52;;;;;;;94.85;46.75;;;;;;;12.14;95.18;101138.88;5012824;28;20069;-74
2021/09/09 03:58:17;;;;;;;97.68;48.45;;;;;;;12.14;95.49;101141.53;5012713;28;20026;-75
2021/09/09 04:00:43;;;;;;;77.13;41.75;;;;;;;12.11;95.44;101139.16;5013749;28;20037;-74
2021/09/09 04:03:08;;;;;;;79.07;44.67;;;;;;;12.09;95.25;101141.97;5012477;28;20062;-74
2021/09/09 04:05:33;;;;;;;103.63;51.05;;;;;;;12.13;95.99;101134.50;5013035;28;20045;-74
2021/09/09 04:07:59;;;;;;;96.78;50.80;;;;;;;12.10;95.90;101135.63;5012997;28;20049;-74
2021/09/09 04:10:25;;;;;;;78.63;42.25;;;;;;;12.10;95.62;101140.94;5012255;28;20045;-75
2021/09/09 04:12:51;;;;;;;73.30;41.63;;;;;;;12.08;95.40;101134.94;5027762;28;20056;-74
2021/09/09 04:15:16;;;;;;;69.88;40.10;;;;;;;12.09;95.04;101133.97;5011764;28;20113;-74
2021/09/09 04:17:42;;;;;;;85.53;46.20;;;;;;;12.10;95.35;101132.13;5013824;28;20040;-74
2021/09/09 04:20:08;;;;;;;88.20;46.22;;;;;;;12.10;95.45;101132.13;5015836;28;20030;-75
2021/09/09 04:22:34;;;;;;;75.20;42.30;;;;;;;12.09;95.37;101128.63;5016117;28;20117;-74
2021/09/09 04:25:00;;;;;;;68.00;38.45;;;;;;;12.08;95.36;101124.25;5016414;28;20080;-74
2021/09/09 04:27:25;;;;;;;72.03;42.38;;;;;;;12.08;95.11;101123.44;5014527;28;20084;-74
2021/09/09 04:29:51;;;;;;;103.88;51.90;;;;;;;12.11;95.79;101120.47;5015946;28;20470;-74
2021/09/09 04:32:17;;;;;;;84.30;46.03;;;;;;;12.12;96.08;101114.13;5015547;28;20105;-74
2021/09/09 04:34:43;;;;;;;74.80;45.03;;;;;;;12.10;95.66;101113.44;5016223;28;20487;-74
2021/09/09 04:37:08;;;;;;;66.78;39.22;;;;;;;12.08;95.14;101107.44;5015460;28;20121;-74
2021/09/09 04:39:33;;;;;;;71.97;41.45;;;;;;;12.07;95.17;101101.22;4998444;28;20038;-74
2021/09/09 04:41:59;;;;;;;76.85;43.03;;;;;;;12.08;95.07;101094.94;5015877;28;20065;-74
2021/09/09 04:44:25;;;;;;;87.50;46.90;;;;;;;12.09;95.51;101091.28;5015339;28;20046;-74
2021/09/09 04:46:50;;;;;;;82.93;46.55;;;;;;;12.09;95.59;101088.63;5015693;28;20030;-74
2021/09/09 04:49:15;;;;;;;97.40;50.38;;;;;;;12.08;95.63;101080.75;5015652;28;20062;-74
2021/09/09 04:51:41;;;;;;;95.07;51.25;;;;;;;12.11;96.28;101088.47;5015546;28;20026;-74
2021/09/09 04:54:06;;;;;;;74.28;42.50;;;;;;;12.09;96.17;101091.28;5014903;28;20045;-75
2021/09/09 04:56:31;;;;;;;78.10;44.55;;;;;;;12.06;96.01;101086.22;5015654;28;20390;-74
2021/09/09 04:58:57;;;;;;;66.80;39.03;;;;;;;12.04;95.70;101084.69;5015717;28;20033;-74
2021/09/09 05:01:24;;;;;;;74.57;43.60;;;;;;;12.04;95.57;101084.69;5014871;28;20076;-74
2021/09/09 05:03:49;;;;;;;81.55;45.95;;;;;;;12.02;95.74;101076.84;5015788;28;20030;-74
2021/09/09 05:06:15;;;;;;;98.85;49.15;;;;;;;12.02;95.80;101082.16;5014396;28;20056;-74
2021/09/09 05:08:40;;;;;;;99.00;51.65;;;;;;;12.04;96.19;101079.34;5015449;28;20437;-74
2021/09/09 05:11:09;;;;;;;84.75;48.20;;;;;;;12.05;96.57;101087.22;5014279;28;20034;-74
2021/09/09 05:13:34;;;;;;;89.40;48.03;;;;;;;12.04;96.33;101084.69;5015422;28;20088;-74
2021/09/09 05:15:59;;;;;;;94.47;51.72;;;;;;;12.06;96.08;101078.22;5015513;28;20033;-74
2021/09/09 05:18:25;;;;;;;78.32;43.22;;;;;;;12.09;96.45;101080.63;4997464;28;20065;-74
2021/09/09 05:20:50;;;;;;;82.30;45.97;;;;;;;12.12;96.08;101083.00;5015105;28;20532;-73
2021/09/09 05:23:15;;;;;;;99.38;50.60;;;;;;;12.17;96.58;101079.88;5013294;28;20035;-73
2021/09/09 05:25:41;;;;;;;87.50;46.78;;;;;;;12.22;96.62;101095.47;5015092;28;20069;-73
2021/09/09 05:28:06;;;;;;;100.25;52.45;;;;;;;12.24;96.78;101091.69;5014582;28;20045;-73
2021/09/09 05:30:32;;;;;;;89.72;49.15;;;;;;;12.26;96.75;101091.53;5014372;28;20453;-73
2021/09/09 05:32:57;;;;;;;84.25;47.80;;;;;;;12.29;96.72;101086.72;5015001;28;20041;-73
2021/09/09 05:35:22;;;;;;;80.20;46.30;;;;;;;12.33;96.47;101088.13;5013165;28;20045;-74
2021/09/09 05:37:48;;;;;;;84.28;46.70;;;;;;;12.39;96.61;101091.19;5014947;28;20083;-73
2021/09/09 05:40:13;;;;;;;81.45;46.35;;;;;;;12.43;96.90;101089.94;5014247;28;20202;-73
2021/09/09 05:42:38;;;;;;;85.93;48.05;;;;;;;12.49;96.48;101092.00;5014835;28;20030;-74
2021/09/09 05:45:04;;;;;;;84.55;46.13;;;;;;;12.55;96.51;101090.59;5014866;28;20037;-73
2021/09/09 05:47:30;;;;;;;84.68;47.03;;;;;;;12.59;96.56;101079.47;5014150;28;20041;-73
2021/09/09 05:49:55;;;;;;;84.72;47.13;;;;;;;12.65;96.68;101064.72;5014678;28;20070;-74
2021/09/09 05:52:21;;;;;;;85.57;48.05;;;;;;;12.74;96.75;101065.66;5013901;28;20042;-74
2021/09/09 05:54:46;;;;;;;79.20;46.05;;;;;;;12.81;96.86;101070.25;5014555;28;20042;-74
2021/09/09 05:57:12;;;;;;;84.20;48.50;;;;;;;12.90;96.65;101079.22;5014263;28;20038;-73
2021/09/09 05:59:37;;;;;;;72.75;43.67;;;;;;;12.98;96.96;101079.28;5013748;28;20034;-74
2021/09/09 06:02:05;;;;;;;77.97;44.45;;;;;;;13.05;96.40;101082.22;5014329;28;20037;-74
2021/09/09 06:04:34;;;;;;;67.85;40.08;;;;;;;13.16;96.57;101089.19;5013735;28;20034;-74
2021/09/09 06:07:00;;;;;;;73.35;43.13;;;;;;;13.23;96.45;101085.75;5014100;28;20060;-74
2021/09/09 06:09:26;;;;;;;68.50;44.72;;;;;;;13.33;95.95;101076.84;5013728;28;20465;-74
2021/09/09 06:11:51;;;;;;;67.00;43.30;;;;;;;13.42;95.28;101073.31;4996645;28;20042;-74
2021/09/09 06:14:16;;;;;;;63.03;40.28;;;;;;;13.52;95.19;101073.22;5013613;28;20041;-74
2021/09/09 06:16:42;;;;;;;61.50;39.75;;;;;;;13.64;94.99;101073.81;5013933;28;20030;-72
2021/09/09 06:19:07;;;;;;;58.83;37.80;;;;;;;13.73;94.85;101073.75;5013628;28;20088;-74
2021/09/09 06:21:32;;;;;;;58.85;37.97;;;;;;;13.88;94.46;101073.19;5013144;28;20121;-74
2021/09/09 06:23:58;;;;;;;54.33;35.22;;;;;;;14.02;93.88;101074.47;5012717;28;20038;-73
2021/09/09 06:26:23;;;;;;;50.88;34.97;;;;;;;14.18;92.58;101079.09;5013458;28;20360;-74
2021/09/09 06:28:49;;;;;;;49.72;34.85;;;;;;;14.32;92.32;101081.19;5013873;28;20038;-74
2021/09/09 06:31:14;;;;;;;49.05;34.17;;;;;;;14.46;92.30;101077.09;5013989;28;20053;-74
2021/09/09 06:33:39;;;;;;;50.83;32.75;;;;;;;14.61;91.36;101077.38;5013167;28;20045;-74
2021/09/09 06:36:05;;;;;;;48.50;32.83;;;;;;;14.76;90.58;101070.44;5012948;28;20036;-74
2021/09/09 06:38:30;;;;;;;43.95;31.60;;;;;;;14.95;90.38;101077.34;5028301;28;20026;-74
2021/09/09 06:40:56;;;;;;;47.97;31.60;;;;;;;15.13;89.83;101074.56;5012918;28;20037;-73
2021/09/09 06:43:21;;;;;;;46.85;30.15;;;;;;;15.31;89.00;101077.13;5013120;28;20066;-74
2021/09/09 06:45:47;;;;;;;47.92;31.20;;;;;;;15.48;88.07;101071.78;5013935;28;20492;-74
2021/09/09 06:48:13;;;;;;;38.35;29.75;;;;;;;15.66;86.94;101082.38;5013542;28;20460;-73
2021/09/09 06:50:39;;;;;;;41.13;28.50;;;;;;;15.82;86.00;101108.38;5012979;28;20268;-74
2021/09/09 06:53:04;;;;;;;35.60;28.17;;;;;;;15.99;84.65;101125.34;5013511;28;20130;-73
2021/09/09 06:55:30;;;;;;;39.78;28.33;;;;;;;16.15;85.72;101119.13;5012964;28;20034;-73
2021/09/09 06:57:57;;;;;;;37.85;26.63;;;;;;;16.27;82.96;101127.66;5012159;28;20088;-72
2021/09/09 07:00:22;;;;;;;37.05;26.25;;;;;;;16.40;81.88;101115.38;5012667;28;20089;-74
2021/09/09 07:02:47;;;;;;;39.13;27.17;;;;;;;16.53;81.59;101108.66;5013118;28;20038;-73
2021/09/09 07:05:13;;;;;;;35.20;26.15;;;;;;;16.66;80.89;101113.47;5012917;28;20034;-72
2021/09/09 07:07:39;;;;;;;34.83;25.02;;;;;;;16.83;80.64;101119.66;5012793;28;20089;-73
2021/09/09 07:10:06;;;;;;;38.78;25.33;;;;;;;16.99;79.65;101110.72;4995883;28;20163;-73
2021/09/09 07:12:31;;;;;;;34.65;23.92;;;;;;;17.16;78.71;101103.41;5012498;28;20041;-73
2021/09/09 07:14:56;;;;;;;34.45;22.05;;;;;;;17.43;77.81;101104.78;5012866;28;20401;-73
2021/09/09 07:17:22;;;;;;;33.90;23.25;;;;;;;17.65;76.65;101107.66;5012328;28;20462;-73
2021/09/09 07:19:47;;;;;;;32.13;23.27;;;;;;;17.74;75.98;101102.03;5012797;28;20036;-73
2021/09/09 07:22:12;;;;;;;29.52;21.92;;;;;;;17.87;75.60;101096.06;5012595;28;20032;-73
2021/09/09 07:24:38;;;;;;;29.42;21.48;;;;;;;17.94;74.30;101088.97;5011283;28;20030;-73
2021/09/09 07:27:03;;;;;;;36.42;21.05;;;;;;;18.03;73.97;101081.63;5012905;28;20466;-73
2021/09/09 07:29:29;;;;;;;33.67;21.77;;;;;;;18.13;74.63;101079.50;5012119;28;20386;-74
2021/09/09 07:31:54;;;;;;;29.83;21.10;;;;;;;18.28;75.27;101078.72;5013050;28;20042;-73
2021/09/09 07:34:19;;;;;;;28.70;20.52;;;;;;;18.47;73.09;101083.56;5012640;28;20064;-74
2021/09/09 07:36:45;;;;;;;29.23;19.40;;;;;;;18.71;73.30;101081.59;5011957;28;20052;-73
2021/09/09 07:39:10;;;;;;;32.40;21.15;;;;;;;18.94;71.10;101089.59;5012909;28;20038;-72
2021/09/09 07:41:36;;;;;;;25.52;19.65;;;;;;;19.18;69.97;101090.28;5012478;28;20038;-73
2021/09/09 07:44:02;;;;;;;27.67;19.48;;;;;;;19.32;69.68;101099.38;5012939;28;20073;-74
2021/09/09 07:46:27;;;;;;;26.30;18.17;;;;;;;19.37;68.95;101091.53;5027074;28;20489;-74
2021/09/09 07:48:53;;;;;;;27.58;18.33;;;;;;;19.44;68.38;101091.63;5012685;28;20033;-73
2021/09/09 07:51:19;;;;;;;29.85;18.85;;;;;;;19.48;69.79;101091.06;5012453;28;20474;-74
2021/09/09 07:53:47;;;;;;;26.55;18.85;;;;;;;19.40;69.74;101096.56;5012002;28;20120;-74
2021/09/09 07:56:13;;;;;;;28.08;19.38;;;;;;;19.40;70.64;101101.97;5012530;28;20129;-74
2021/09/09 07:58:38;;;;;;;27.20;16.83;;;;;;;19.49;67.98;101103.50;5011662;28;20112;-72
2021/09/09 08:01:04;;;;;;;28.98;17.25;;;;;;;19.73;68.02;101112.25;5012446;28;20079;-73
2021/09/09 08:03:30;;;;;;;22.52;17.13;;;;;;;19.88;67.35;101104.97;5011910;28;20038;-74
2021/09/09 08:05:55;;;;;;;22.50;16.52;;;;;;;20.14;67.46;101105.34;5028472;28;20389;-73
2021/09/09 08:08:21;;;;;;;22.48;15.93;;;;;;;20.66;64.39;101104.09;5012417;28;20040;-73
2021/09/09 08:10:47;;;;;;;19.35;14.40;;;;;;;21.60;60.48;101112.56;5012129;28;20096;-73
2021/09/09 08:13:12;;;;;;;25.25;17.13;;;;;;;21.94;58.60;101106.13;5013113;28;20026;-73
2021/09/09 08:15:38;;;;;;;26.85;16.27;;;;;;;21.99;60.15;101103.66;5012176;28;20085;-73
2021/09/09 08:18:04;;;;;;;22.08;15.80;;;;;;;21.95;59.83;101115.94;5013523;28;20069;-73
2021/09/09 08:20:29;;;;;;;27.10;16.17;;;;;;;22.18;59.77;101120.97;5012655;28;20081;-74
2021/09/09 08:22:55;;;;;;;24.90;16.27;;;;;;;22.29;60.18;101124.91;5012829;28;20363;-74
2021/09/09 08:25:20;;;;;;;25.73;17.58;;;;;;;22.29;58.68;101135.75;5012669;28;20054;-74
2021/09/09 08:27:46;;;;;;;23.45;16.35;;;;;;;22.08;59.70;101133.22;5011870;28;20433;-74
2021/09/09 08:30:12;;;;;;;25.17;16.35;;;;;;;21.96;59.52;101133.03;5012008;28;20475;-74
2021/09/09 08:32:37;;;;;;;28.05;16.23;;;;;;;21.83;60.94;101131.16;5011543;28;20533;-73
2021/09/09 08:35:03;;;;;;;25.95;17.15;;;;;;;21.78;61.88;101129.06;5012463;28;20038;-74
2021/09/09 08:37:29;;;;;;;25.02;17.58;;;;;;;21.88;60.53;101125.13;5012583;28;20048;-73
2021/09/09 08:39:54;;;;;;;29.02;17.60;;;;;;;21.99;61.27;101119.09;5011663;28;20470;-74
2021/09/09 08:42:19;;;;;;;30.85;17.83;;;;;;;22.08;61.19;101115.13;5012354;28;20077;-73
2021/09/09 08:44:47;;;;;;;25.63;18.13;;;;;;;22.32;61.23;101110.97;5011696;28;20030;-73
2021/09/09 08:47:12;;;;;;;28.75;18.30;;;;;;;22.96;58.72;101113.94;5012231;28;20121;-73
2021/09/09 08:49:38;;;;;;;26.48;17.10;;;;;;;24.06;55.45;101115.59;5011751;28;20133;-73
2021/09/09 08:52:04;;;;;;;22.77;17.90;;;;;;;25.10;51.79;101119.56;5012539;28;20038;-74
2021/09/09 08:54:31;;;;;;;28.48;17.05;;;;;;;26.04;50.20;101124.53;5012297;28;20045;-73
2021/09/09 08:56:57;;;;;;;29.60;18.10;;;;;;;27.07;45.35;101119.44;5026803;28;20370;-73
2021/09/09 08:59:22;;;;;;;23.08;16.30;;;;;;;28.23;43.83;101125.63;5027266;28;20037;-74
2021/09/09 09:02:10;;;;;;;22.95;16.63;;;;;;;29.06;41.64;101129.50;5011196;28;20030;-74
2021/09/09 09:04:38;;;;;;;25.95;17.05;;;;;;;29.52;40.08;101119.88;5013729;28;20393;-74
2021/09/09 09:07:05;;;;;;;19.98;16.00;;;;;;;29.61;40.41;101124.88;5015175;28;20505;-74
2021/09/09 09:09:34;;;;;;;23.42;16.20;;;;;;;30.08;38.64;101121.44;5015575;28;20065;-73
2021/09/09 09:12:03;;;;;;;24.45;15.88;;;;;;;30.02;39.87;101128.00;5015111;28;20037;-74
2021/09/09 09:14:29;;;;;;;20.30;15.73;;;;;;;30.68;36.78;101126.78;5015408;28;20064;-73
2021/09/09 09:17:00;;;;;;;23.58;14.02;;;;;;;30.93;37.10;101124.16;5014784;28;20273;-74
2021/09/09 09:19:31;;;;;;;25.50;16.90;;;;;;;30.91;37.63;101131.81;5015519;28;20116;-74
2021/09/09 09:22:09;;;;;;;23.10;15.93;;;;;;;30.78;38.52;101129.56;4996878;28;20184;-73
2021/09/09 09:24:49;;;;;;;21.88;16.33;;;;;;;30.66;37.36;101126.22;5015344;28;20359;-74
2021/09/09 09:27:16;;;;;;;21.58;17.67;;;;;;;30.52;37.91;101121.22;5015271;28;20034;-74
2021/09/09 09:29:58;;;;;;;25.25;16.65;;;;;;;30.97;37.73;101127.19;5014525;28;20040;-74
2021/09/09 09:32:23;;;;;;;21.67;16.00;;;;;;;31.00;37.37;101125.84;5015142;28;20034;-73
2021/09/09 09:34:49;;;;;;;21.33;16.13;;;;;;;30.67;38.74;101131.44;5014544;28;20041;-74
2021/09/09 09:37:21;;;;;;;24.05;16.50;;;;;;;30.63;39.10;101135.81;4997375;28;20038;-73
2021/09/09 09:39:47;;;;;;;18.70;15.45;;;;;;;30.76;38.79;101131.78;4996718;28;20493;-74
2021/09/09 09:42:12;;;;;;;22.92;17.17;;;;;;;30.70;38.61;101132.84;5014929;28;20029;-74
2021/09/09 09:44:46;;;;;;;32.08;17.55;;;;;;;29.49;41.13;101134.09;5014886;28;20040;-74
2021/09/09 09:47:21;;;;;;;26.60;17.00;;;;;;;29.97;41.07;101134.25;5015170;28;20061;-74
2021/09/09 09:49:53;;;;;;;18.48;15.73;;;;;;;30.27;40.52;101135.56;5014179;28;20053;-74
2021/09/09 09:52:26;;;;;;;25.05;17.27;;;;;;;29.77;40.58;101136.81;5014915;28;20042;-74
2021/09/09 09:55:00;;;;;;;27.20;17.20;;;;;;;29.48;41.45;101126.13;5014046;28;20044;-74
2021/09/09 09:57:29;;;;;;;24.88;17.20;;;;;;;29.72;41.44;101123.88;5014876;28;20026;-73
2021/09/09 09:59:54;;;;;;;22.52;15.90;;;;;;;30.18;42.30;101118.78;5014264;28;20076;-73
2021/09/09 10:02:20;;;;;;;21.42;15.68;;;;;;;30.94;39.74;101120.28;5014483;28;20030;-73
2021/09/09 10:04:48;;;;;;;20.42;15.27;;;;;;;31.70;37.51;101115.28;5013685;28;20540;-74
2021/09/09 10:07:15;;;;;;;22.33;14.38;;;;;;;31.89;38.40;101117.47;5014338;28;20363;-73
2021/09/09 10:09:41;;;;;;;25.58;15.18;;;;;;;31.59;39.88;101122.72;4997140;28;20430;-74
2021/09/09 10:12:08;;;;;;;21.98;14.23;;;;;;;31.85;38.83;101108.97;5014442;28;20041;-73
2021/09/09 10:14:35;;;;;;;20.27;14.43;;;;;;;32.66;35.49;101123.69;5013861;28;20030;-73
2021/09/09 10:17:01;;;;;;;24.67;14.70;;;;;;;32.15;37.17;101112.81;5013339;28;20037;-73
2021/09/09 10:19:30;;;;;;;27.63;15.25;;;;;;;31.21;39.10;101105.56;5014066;28;20022;-73
2021/09/09 10:22:13;;;;;;;21.35;13.60;;;;;;;31.04;40.91;101110.50;5013413;28;20037;-74
2021/09/09 10:24:50;;;;;;;21.25;14.85;;;;;;;31.31;38.84;101107.53;5014198;28;20109;-74
2021/09/09 10:27:19;;;;;;;23.35;13.27;;;;;;;31.44;40.33;101107.00;5013910;28;20478;-73
2021/09/09 10:30:00;;;;;;;19.90;13.33;;;;;;;31.69;37.89;101110.88;4995839;28;20061;-74
2021/09/09 10:32:37;;;;;;;20.33;12.93;;;;;;;31.79;40.78;101113.63;5014096;28;20562;-74
2021/09/09 10:35:15;;;;;;;24.30;13.73;;;;;;;32.06;38.57;101114.44;5013495;28;20565;-73
2021/09/09 10:37:54;;;;;;;26.30;13.90;;;;;;;32.20;37.39;101117.47;5013660;28;20038;-73
2021/09/09 10:40:31;;;;;;;24.30;14.45;;;;;;;31.84;39.68;101114.72;5013652;28;20026;-74
2021/09/09 10:43:02;;;;;;;27.02;14.90;;;;;;;32.34;38.28;101110.28;5013173;28;20041;-73
2021/09/09 10:45:37;;;;;;;22.98;14.05;;;;;;;32.43;38.24;101116.88;5013849;28;20382;-73
2021/09/09 10:48:18;;;;;;;25.70;15.38;;;;;;;31.95;39.90;101114.44;5013134;28;20032;-73
2021/09/09 10:51:04;;;;;;;20.83;15.07;;;;;;;31.86;39.53;101109.78;5013478;28;20026;-73
2021/09/09 10:53:53;;;;;;;22.15;15.07;;;;;;;32.28;39.12;101103.97;5013227;28;20087;-74
2021/09/09 10:56:23;;;;;;;22.50;15.32;;;;;;;32.53;38.19;101105.00;5013549;28;20022;-74
2021/09/09 10:59:11;;;;;;;22.20;14.55;;;;;;;32.62;36.41;101116.25;5013031;28;20075;-74
2021/09/09 11:01:44;;;;;;;23.40;16.10;;;;;;;31.87;36.93;101108.69;5013151;28;20052;-73
2021/09/09 11:04:29;;;;;;;22.73;12.65;;;;;;;32.06;37.04;101114.44;5012517;28;20500;-73
2021/09/09 11:06:56;;;;;;;20.00;12.68;;;;;;;32.11;37.48;101115.31;5012379;28;20074;-74